createdAt,value
2022-08-24T00:00:44.016Z,4.65
2022-08-24T00:01:46.652Z,5.47
2022-08-24T00:02:49.411Z,4.81
2022-08-24T00:03:55.369Z,4.85
2022-08-24T00:04:57.375Z,5.16
2022-08-24T00:05:59.844Z,4.82
2022-08-24T00:07:02.460Z,5.05
2022-08-24T00:08:05.154Z,5.21
2022-08-24T00:09:07.873Z,6.18
2022-08-24T00:10:11.034Z,5.08
2022-08-24T00:11:13.590Z,4.71
2022-08-24T00:12:16.033Z,5.34
2022-08-24T00:13:18.594Z,5.30
2022-08-24T00:14:21.156Z,5.15
2022-08-24T00:15:24.972Z,5.13
2022-08-24T00:16:27.715Z,4.92
2022-08-24T00:17:30.285Z,5.33
2022-08-24T00:18:32.737Z,4.79
2022-08-24T00:19:35.294Z,4.77
2022-08-24T00:20:40.049Z,5.00
2022-08-24T00:21:42.648Z,4.96
2022-08-24T00:22:45.317Z,4.70
2022-08-24T00:23:47.894Z,5.04
2022-08-24T00:24:50.393Z,4.89
2022-08-24T00:25:53.120Z,5.37
2022-08-24T00:26:56.324Z,5.09
2022-08-24T00:27:58.928Z,5.51
2022-08-24T00:29:04.289Z,4.58
2022-08-24T00:30:07.732Z,4.80
2022-08-24T00:31:10.214Z,5.15
2022-08-24T00:32:12.774Z,4.90
2022-08-24T00:33:15.226Z,5.14
2022-08-24T00:34:17.691Z,4.80
2022-08-24T00:35:20.365Z,5.19
2022-08-24T00:36:23.444Z,4.50
2022-08-24T00:37:26.843Z,5.01
2022-08-24T00:38:29.841Z,4.81
2022-08-24T00:39:32.361Z,5.25
2022-08-24T00:40:37.128Z,4.95
2022-08-24T00:41:40.706Z,4.75
2022-08-24T00:42:43.606Z,4.82
2022-08-24T00:43:53.036Z,4.85
2022-08-24T00:44:55.628Z,5.17
2022-08-24T00:46:03.142Z,4.93
2022-08-24T00:47:13.631Z,4.79
2022-08-24T00:49:50.305Z,4.77
2022-08-24T00:50:58.179Z,4.30
2022-08-24T00:52:03.654Z,5.01
2022-08-24T00:54:21.356Z,4.51
2022-08-24T00:56:41.109Z,4.51
2022-08-24T00:57:44.190Z,5.00
2022-08-24T00:58:56.821Z,5.12
2022-08-24T01:01:02.245Z,4.45
2022-08-24T01:02:14.961Z,5.39
2022-08-24T01:03:10.781Z,4.92
2022-08-24T01:04:14.233Z,4.76
2022-08-24T01:05:16.749Z,4.42
2022-08-24T01:06:19.697Z,4.70
2022-08-24T01:07:25.854Z,5.11
2022-08-24T01:08:28.456Z,4.66
2022-08-24T01:09:30.930Z,4.88
2022-08-24T01:10:35.489Z,4.61
2022-08-24T01:13:00.147Z,4.36
2022-08-24T01:13:52.939Z,4.59
2022-08-24T01:14:55.845Z,4.47
2022-08-24T01:15:59.029Z,4.64
2022-08-24T01:17:01.859Z,4.54
2022-08-24T01:18:05.837Z,4.77
2022-08-24T01:20:23.438Z,4.71
2022-08-24T01:21:30.623Z,5.23
2022-08-24T01:22:52.565Z,4.77
2022-08-24T01:23:58.646Z,4.26
2022-08-24T01:25:01.376Z,4.78
2022-08-24T01:26:05.046Z,4.74
2022-08-24T01:27:08.329Z,4.35
2022-08-24T01:28:14.073Z,5.18
2022-08-24T01:30:36.634Z,4.75
2022-08-24T01:31:35.334Z,4.42
2022-08-24T01:32:37.838Z,5.12
2022-08-24T01:33:40.409Z,4.61
2022-08-24T01:34:43.006Z,4.83
2022-08-24T01:35:45.470Z,4.64
2022-08-24T01:36:49.213Z,4.05
2022-08-24T01:37:51.798Z,5.14
2022-08-24T01:38:54.900Z,4.33
2022-08-24T01:39:57.471Z,4.70
2022-08-24T01:41:02.428Z,4.79
2022-08-24T01:42:04.992Z,4.49
2022-08-24T01:43:07.551Z,4.43
2022-08-24T01:44:10.133Z,4.81
2022-08-24T01:45:12.793Z,5.07
2022-08-24T01:46:16.434Z,4.59
2022-08-24T01:47:18.946Z,4.74
2022-08-24T01:48:22.985Z,5.53
2022-08-24T01:49:27.099Z,4.80
2022-08-24T01:50:30.864Z,4.93
2022-08-24T01:51:33.371Z,4.61
2022-08-24T01:53:01.811Z,4.53
2022-08-24T01:53:40.085Z,4.50
2022-08-24T01:54:42.648Z,4.88
2022-08-24T01:55:46.245Z,4.43
2022-08-24T01:56:49.158Z,4.76
2022-08-24T01:57:53.668Z,4.40
2022-08-24T01:58:55.992Z,4.75
2022-08-24T01:59:58.603Z,4.21
2022-08-24T02:01:01.501Z,4.56
2022-08-24T02:02:05.979Z,4.94
2022-08-24T02:03:08.645Z,4.81
2022-08-24T02:04:11.355Z,4.62
2022-08-24T02:05:15.751Z,4.80
2022-08-24T02:06:18.819Z,4.76
2022-08-24T02:07:21.272Z,4.58
2022-08-24T02:08:23.744Z,4.79
2022-08-24T02:09:27.796Z,4.83
2022-08-24T02:10:31.702Z,4.83
2022-08-24T02:11:34.177Z,4.85
2022-08-24T02:12:37.051Z,4.67
2022-08-24T02:13:39.824Z,4.73
2022-08-24T02:14:42.489Z,5.13
2022-08-24T02:15:45.077Z,4.79
2022-08-24T02:16:49.518Z,4.62
2022-08-24T02:17:52.297Z,4.53
2022-08-24T02:18:54.884Z,4.78
2022-08-24T02:22:40.664Z,4.42
2022-08-24T02:25:04.343Z,4.75
2022-08-24T02:26:07.489Z,5.04
2022-08-24T02:27:10.213Z,4.85
2022-08-24T02:28:12.743Z,4.92
2022-08-24T02:29:15.368Z,4.54
2022-08-24T02:30:19.598Z,5.21
2022-08-24T02:31:22.228Z,4.96
2022-08-24T02:32:24.991Z,4.47
2022-08-24T02:33:27.720Z,4.55
2022-08-24T02:34:32.294Z,4.78
2022-08-24T02:35:34.822Z,4.51
2022-08-24T02:36:38.267Z,4.71
2022-08-24T02:37:43.362Z,5.16
2022-08-24T02:38:45.129Z,4.71
2022-08-24T02:39:47.721Z,5.10
2022-08-24T02:40:50.628Z,5.71
2022-08-24T02:41:53.240Z,5.23
2022-08-24T02:42:55.845Z,5.49
2022-08-24T02:43:58.293Z,4.67
2022-08-24T02:45:01.040Z,4.62
2022-08-24T02:46:03.850Z,4.77
2022-08-24T02:47:08.105Z,5.24
2022-08-24T02:48:10.998Z,5.05
2022-08-24T02:49:13.524Z,4.96
2022-08-24T02:50:17.433Z,5.23
2022-08-24T02:51:20.799Z,4.90
2022-08-24T02:52:23.879Z,4.46
2022-08-24T02:53:26.328Z,4.79
2022-08-24T02:54:28.805Z,4.94
2022-08-24T02:55:31.262Z,5.02
2022-08-24T02:56:34.738Z,4.53
2022-08-24T02:58:59.141Z,4.71
2022-08-24T03:01:24.123Z,4.91
2022-08-24T03:02:27.327Z,4.76
2022-08-24T03:03:30.019Z,5.26
2022-08-24T03:04:32.537Z,4.55
2022-08-24T03:05:35.167Z,5.14
2022-08-24T03:06:38.014Z,5.21
2022-08-24T03:07:40.523Z,4.65
2022-08-24T03:08:43.152Z,4.91
2022-08-24T03:09:47.520Z,4.95
2022-08-24T03:10:50.326Z,5.01
2022-08-24T03:11:52.980Z,4.52
2022-08-24T03:12:56.340Z,4.59
2022-08-24T03:14:00.039Z,4.81
2022-08-24T03:15:03.415Z,4.53
2022-08-24T03:16:06.808Z,4.74
2022-08-24T03:17:09.321Z,4.64
2022-08-24T03:18:12.513Z,4.88
2022-08-24T03:19:16.888Z,4.36
2022-08-24T03:20:21.088Z,4.36
2022-08-24T03:21:23.663Z,4.58
2022-08-24T03:22:26.331Z,4.29
2022-08-24T03:23:28.953Z,4.99
2022-08-24T03:26:01.896Z,5.04
2022-08-24T03:27:23.057Z,4.68
2022-08-24T03:28:45.137Z,4.42
2022-08-24T03:29:47.747Z,4.66
2022-08-24T03:30:53.845Z,4.45
2022-08-24T03:31:56.914Z,4.51
2022-08-24T03:33:01.675Z,4.57
2022-08-24T03:34:04.549Z,4.33
2022-08-24T03:35:07.681Z,4.27
2022-08-24T03:36:14.125Z,4.24
2022-08-24T03:37:15.288Z,4.10
2022-08-24T03:38:18.531Z,4.31
2022-08-24T03:39:21.158Z,4.66
2022-08-24T03:40:24.725Z,5.33
2022-08-24T03:41:28.311Z,3.93
2022-08-24T03:42:31.269Z,4.37
2022-08-24T03:43:33.915Z,4.83
2022-08-24T03:44:36.587Z,4.48
2022-08-24T03:45:39.106Z,4.27
2022-08-24T03:46:41.952Z,3.89
2022-08-24T03:47:44.430Z,3.76
2022-08-24T03:48:47.190Z,4.56
2022-08-24T03:49:49.757Z,4.64
2022-08-24T03:50:52.711Z,4.45
2022-08-24T03:51:55.204Z,4.42
2022-08-24T03:52:57.702Z,3.91
2022-08-24T03:56:42.395Z,4.03
2022-08-24T03:57:45.134Z,4.23
2022-08-24T03:58:47.523Z,4.35
2022-08-24T03:59:50.095Z,3.69
2022-08-24T04:00:53.435Z,4.58
2022-08-24T04:01:57.093Z,4.22
2022-08-24T04:02:59.817Z,3.76
2022-08-24T04:04:02.718Z,3.64
2022-08-24T04:05:05.767Z,3.84
2022-08-24T04:06:09.034Z,4.16
2022-08-24T04:07:13.396Z,3.97
2022-08-24T04:08:17.829Z,4.43
2022-08-24T04:09:20.377Z,3.85
2022-08-24T04:10:23.368Z,3.87
2022-08-24T04:11:26.821Z,4.00
2022-08-24T04:12:29.414Z,3.66
2022-08-24T04:13:31.980Z,3.84
2022-08-24T04:20:00.802Z,3.74
2022-08-24T04:22:25.275Z,3.85
2022-08-24T04:23:29.035Z,3.94
2022-08-24T04:24:32.490Z,3.97
2022-08-24T04:25:38.900Z,4.07
2022-08-24T04:26:45.501Z,3.51
2022-08-24T04:27:45.809Z,3.78
2022-08-24T04:28:48.357Z,3.63
2022-08-24T04:29:50.847Z,3.48
2022-08-24T04:30:53.505Z,3.93
2022-08-24T04:31:56.017Z,3.66
2022-08-24T04:32:58.779Z,3.43
2022-08-24T04:34:01.375Z,3.29
2022-08-24T04:35:04.362Z,3.34
2022-08-24T04:36:10.340Z,3.56
2022-08-24T04:37:13.068Z,3.66
2022-08-24T04:38:16.243Z,3.43
2022-08-24T04:39:20.595Z,3.43
2022-08-24T04:40:24.316Z,3.75
2022-08-24T04:41:31.453Z,3.27
2022-08-24T04:42:32.010Z,3.63
2022-08-24T04:43:36.226Z,3.35
2022-08-24T04:44:38.980Z,3.27
2022-08-24T04:45:42.156Z,3.59
2022-08-24T04:46:45.252Z,3.18
2022-08-24T04:47:47.766Z,3.30
2022-08-24T04:48:50.228Z,3.13
2022-08-24T04:49:52.795Z,2.93
2022-08-24T04:50:57.454Z,3.18
2022-08-24T04:52:00.026Z,3.29
2022-08-24T04:53:03.155Z,2.92
2022-08-24T04:54:05.902Z,3.49
2022-08-24T04:55:08.856Z,3.46
2022-08-24T04:56:13.325Z,3.31
2022-08-24T04:57:18.172Z,3.01
2022-08-24T04:58:20.059Z,3.08
2022-08-24T04:59:22.741Z,3.22
2022-08-24T05:00:27.214Z,3.24
2022-08-24T05:01:29.993Z,3.49
2022-08-24T05:02:36.593Z,3.27
2022-08-24T05:03:37.141Z,2.96
2022-08-24T05:04:39.737Z,3.19
2022-08-24T05:05:44.016Z,3.25
2022-08-24T05:06:46.949Z,3.66
2022-08-24T05:07:54.674Z,3.65
2022-08-24T05:08:56.084Z,3.51
2022-08-24T05:09:59.021Z,3.26
2022-08-24T05:12:12.446Z,3.59
2022-08-24T05:13:15.321Z,3.21
2022-08-24T05:14:17.881Z,3.56
2022-08-24T05:15:20.463Z,3.32
2022-08-24T05:16:24.730Z,3.24
2022-08-24T05:17:28.046Z,2.99
2022-08-24T05:18:30.606Z,3.87
2022-08-24T05:19:33.182Z,3.08
2022-08-24T05:20:37.747Z,3.37
2022-08-24T05:21:40.327Z,3.42
2022-08-24T05:22:42.877Z,3.50
2022-08-24T05:23:46.674Z,2.95
2022-08-24T05:24:49.135Z,3.43
2022-08-24T05:25:51.707Z,3.37
2022-08-24T05:26:54.461Z,3.64
2022-08-24T05:27:57.031Z,3.73
2022-08-24T05:28:59.877Z,4.15
2022-08-24T05:30:03.180Z,3.22
2022-08-24T05:31:10.448Z,3.72
2022-08-24T05:32:12.924Z,3.64
2022-08-24T05:33:15.356Z,3.47
2022-08-24T05:34:17.930Z,3.13
2022-08-24T05:35:20.488Z,3.37
2022-08-24T05:36:25.148Z,3.36
2022-08-24T05:37:27.634Z,3.49
2022-08-24T05:38:30.686Z,3.26
2022-08-24T05:39:33.140Z,3.01
2022-08-24T05:40:36.133Z,3.24
2022-08-24T05:41:43.926Z,3.22
2022-08-24T05:42:45.294Z,3.24
2022-08-24T05:43:47.866Z,3.29
2022-08-24T05:44:50.414Z,3.01
2022-08-24T05:45:52.915Z,2.92
2022-08-24T05:46:55.614Z,2.99
2022-08-24T05:47:58.115Z,2.72
2022-08-24T05:49:00.682Z,3.31
2022-08-24T05:50:03.824Z,3.39
2022-08-24T05:51:06.579Z,3.52
2022-08-24T05:52:09.048Z,3.17
2022-08-24T05:53:11.530Z,3.55
2022-08-24T05:54:13.987Z,3.29
2022-08-24T05:55:16.600Z,3.34
2022-08-24T05:56:20.962Z,3.77
2022-08-24T05:57:23.633Z,3.33
2022-08-24T05:58:31.278Z,3.52
2022-08-24T05:59:30.797Z,4.02
2022-08-24T06:00:36.292Z,3.46
2022-08-24T06:01:44.602Z,3.51
2022-08-24T06:02:44.281Z,3.51
2022-08-24T06:03:47.506Z,3.69
2022-08-24T06:04:50.095Z,3.61
2022-08-24T06:05:52.658Z,3.10
2022-08-24T06:06:55.401Z,3.81
2022-08-24T06:07:57.873Z,3.46
2022-08-24T06:09:01.063Z,3.36
2022-08-24T06:10:32.932Z,3.39
2022-08-24T06:11:08.956Z,3.57
2022-08-24T06:12:11.951Z,3.52
2022-08-24T06:13:14.545Z,3.99
2022-08-24T06:14:17.076Z,3.66
2022-08-24T06:15:20.551Z,3.78
2022-08-24T06:16:24.325Z,3.47
2022-08-24T06:17:27.020Z,3.95
2022-08-24T06:18:29.523Z,3.55
2022-08-24T06:19:32.029Z,3.66
2022-08-24T06:20:38.869Z,3.28
2022-08-24T06:21:42.653Z,3.61
2022-08-24T06:22:45.220Z,3.72
2022-08-24T06:23:48.183Z,3.84
2022-08-24T06:24:50.767Z,3.68
2022-08-24T06:25:53.216Z,3.41
2022-08-24T06:26:56.494Z,3.25
2022-08-24T06:27:59.084Z,3.54
2022-08-24T06:29:02.698Z,3.66
2022-08-24T06:30:06.431Z,3.63
2022-08-24T06:31:09.162Z,3.62
2022-08-24T06:32:11.709Z,3.67
2022-08-24T06:33:14.162Z,3.63
2022-08-24T06:34:18.341Z,3.77
2022-08-24T06:35:21.198Z,3.71
2022-08-24T06:36:24.359Z,3.64
2022-08-24T06:37:29.140Z,4.12
2022-08-24T06:38:31.499Z,4.17
2022-08-24T06:39:34.081Z,3.60
2022-08-24T06:40:38.675Z,3.62
2022-08-24T06:41:41.290Z,3.74
2022-08-24T06:42:45.478Z,4.42
2022-08-24T06:43:47.948Z,3.69
2022-08-24T06:44:50.846Z,3.58
2022-08-24T06:45:53.831Z,3.66
2022-08-24T06:46:57.092Z,3.77
2022-08-24T06:47:59.509Z,3.84
2022-08-24T06:49:02.092Z,3.35
2022-08-24T06:50:05.707Z,3.23
2022-08-24T06:51:09.407Z,3.77
2022-08-24T06:52:11.987Z,3.64
2022-08-24T06:53:14.551Z,3.71
2022-08-24T06:54:17.202Z,3.79
2022-08-24T06:55:19.649Z,3.93
2022-08-24T06:56:23.143Z,3.76
2022-08-24T06:57:25.817Z,3.86
2022-08-24T06:58:28.453Z,3.59
2022-08-24T06:59:31.209Z,3.75
2022-08-24T07:01:43.825Z,3.88
2022-08-24T07:02:46.800Z,3.83
2022-08-24T07:03:49.414Z,3.20
2022-08-24T07:04:51.997Z,3.89
2022-08-24T07:05:55.537Z,4.12
2022-08-24T07:06:58.437Z,3.69
2022-08-24T07:08:01.508Z,3.94
2022-08-24T07:09:04.544Z,3.54
2022-08-24T07:10:08.108Z,3.51
2022-08-24T07:11:11.078Z,3.59
2022-08-24T07:12:13.645Z,3.57
2022-08-24T07:13:16.135Z,3.60
2022-08-24T07:14:18.689Z,3.87
2022-08-24T07:15:24.034Z,3.48
2022-08-24T07:16:26.945Z,3.16
2022-08-24T07:17:30.452Z,3.84
2022-08-24T07:18:32.898Z,3.92
2022-08-24T07:19:37.293Z,3.56
2022-08-24T07:20:40.559Z,3.69
2022-08-24T07:21:43.126Z,3.43
2022-08-24T07:22:45.593Z,3.72
2022-08-24T07:23:48.351Z,3.17
2022-08-24T07:24:50.909Z,3.81
2022-08-24T07:25:56.215Z,3.33
2022-08-24T07:26:59.096Z,4.20
2022-08-24T07:28:05.645Z,3.08
2022-08-24T07:29:30.312Z,3.93
2022-08-24T07:30:26.899Z,3.07
2022-08-24T07:31:20.567Z,3.10
2022-08-24T07:32:23.162Z,3.88
2022-08-24T07:33:25.719Z,3.32
2022-08-24T07:34:28.194Z,3.71
2022-08-24T07:35:31.063Z,3.44
2022-08-24T07:36:34.726Z,3.61
2022-08-24T07:37:41.321Z,4.65
2022-08-24T07:38:41.558Z,4.07
2022-08-24T07:39:44.266Z,3.83
2022-08-24T07:41:05.456Z,3.62
2022-08-24T07:42:11.391Z,3.78
2022-08-24T07:42:58.514Z,3.86
2022-08-24T07:44:01.254Z,3.74
2022-08-24T07:45:04.406Z,4.06
2022-08-24T07:46:07.514Z,3.23
2022-08-24T07:47:36.443Z,3.49
2022-08-24T07:48:14.498Z,3.73
2022-08-24T07:49:33.028Z,3.59
2022-08-24T07:50:21.739Z,3.96
2022-08-24T07:51:25.235Z,3.87
2022-08-24T07:52:27.661Z,4.06
2022-08-24T07:53:37.864Z,4.25
2022-08-24T07:54:34.560Z,4.42
2022-08-24T07:55:40.841Z,3.70
2022-08-24T07:56:41.783Z,4.47
2022-08-24T07:57:44.368Z,4.39
2022-08-24T07:58:46.831Z,4.58
2022-08-24T07:59:49.386Z,3.96
2022-08-24T08:01:12.070Z,4.10
2022-08-24T08:02:14.713Z,3.77
2022-08-24T08:03:17.675Z,4.58
2022-08-24T08:04:20.863Z,4.50
2022-08-24T08:05:23.741Z,4.69
2022-08-24T08:06:26.828Z,4.36
2022-08-24T08:07:29.377Z,4.66
2022-08-24T08:08:33.552Z,4.67
2022-08-24T08:09:36.442Z,5.26
2022-08-24T08:10:39.237Z,4.62
2022-08-24T08:11:41.813Z,4.97
2022-08-24T08:12:44.292Z,4.19
2022-08-24T08:13:46.967Z,4.05
2022-08-24T08:14:49.551Z,4.06
2022-08-24T08:15:52.701Z,4.61
2022-08-24T08:16:56.070Z,4.55
2022-08-24T08:17:58.633Z,4.51
2022-08-24T08:19:09.776Z,4.44
2022-08-24T08:20:06.211Z,4.89
2022-08-24T08:21:13.746Z,4.36
2022-08-24T08:22:13.120Z,4.33
2022-08-24T08:23:15.682Z,5.20
2022-08-24T08:24:20.511Z,4.72
2022-08-24T08:25:22.535Z,5.29
2022-08-24T08:26:26.409Z,4.48
2022-08-24T08:27:29.209Z,4.74
2022-08-24T08:28:35.586Z,4.53
2022-08-24T08:29:36.632Z,4.79
2022-08-24T08:30:39.567Z,4.46
2022-08-24T08:31:42.271Z,4.61
2022-08-24T08:32:45.042Z,4.38
2022-08-24T08:35:01.587Z,4.43
2022-08-24T08:36:03.697Z,4.84
2022-08-24T08:37:06.354Z,4.14
2022-08-24T08:39:30.812Z,3.81
2022-08-24T08:40:39.258Z,4.12
2022-08-24T08:42:01.379Z,4.11
2022-08-24T08:43:12.461Z,3.97
2022-08-24T08:44:34.188Z,4.04
2022-08-24T08:45:41.919Z,3.76
2022-08-24T08:46:49.804Z,4.48
2022-08-24T08:47:54.761Z,4.54
2022-08-24T08:48:59.779Z,4.36
2022-08-24T08:50:07.743Z,4.97
2022-08-24T08:51:14.985Z,4.19
2022-08-24T08:52:19.488Z,4.01
2022-08-24T08:53:33.457Z,3.60
2022-08-24T08:54:44.334Z,3.73
2022-08-24T08:55:47.193Z,4.49
2022-08-24T08:57:09.973Z,3.77
2022-08-24T08:58:18.703Z,3.57
2022-08-24T08:59:29.376Z,3.29
2022-08-24T09:00:43.218Z,3.29
2022-08-24T09:01:51.143Z,3.12
2022-08-24T09:03:04.621Z,3.84
2022-08-24T09:04:21.720Z,3.31
2022-08-24T09:05:26.170Z,3.66
2022-08-24T09:06:47.948Z,3.37
2022-08-24T09:07:58.450Z,3.44
2022-08-24T09:09:19.548Z,3.19
2022-08-24T09:10:30.998Z,3.40
2022-08-24T09:11:35.384Z,3.12
2022-08-24T09:12:58.080Z,3.31
2022-08-24T09:14:11.992Z,3.25
2022-08-24T09:15:22.753Z,3.15
2022-08-24T09:16:36.562Z,3.34
2022-08-24T09:19:08.498Z,3.22
2022-08-24T09:20:17.257Z,3.24
2022-08-24T09:21:38.658Z,2.74
2022-08-24T09:22:42.148Z,3.04
2022-08-24T09:24:01.794Z,3.36
2022-08-24T09:25:09.314Z,3.20
2022-08-24T09:26:31.549Z,2.68
2022-08-24T09:27:36.034Z,3.07
2022-08-24T09:28:43.781Z,3.14
2022-08-24T09:29:54.454Z,3.14
2022-08-24T09:31:02.299Z,3.36
2022-08-24T09:32:19.175Z,3.12
2022-08-24T09:33:22.350Z,3.40
2022-08-24T09:34:26.768Z,3.39
2022-08-24T09:35:40.215Z,2.80
2022-08-24T09:36:45.009Z,3.28
2022-08-24T09:37:49.461Z,2.82
2022-08-24T09:38:56.708Z,2.81
2022-08-24T09:40:01.020Z,2.83
2022-08-24T09:41:23.234Z,2.57
2022-08-24T09:42:42.801Z,2.81
2022-08-24T09:43:53.010Z,2.93
2022-08-24T09:45:14.324Z,2.77
2022-08-24T09:46:37.811Z,2.52
2022-08-24T09:47:59.257Z,3.04
2022-08-24T09:49:14.433Z,3.05
2022-08-24T09:50:19.325Z,3.49
2022-08-24T09:51:42.231Z,3.27
2022-08-24T09:52:52.678Z,3.04
2022-08-24T09:54:00.358Z,2.70
2022-08-24T09:55:05.534Z,2.79
2022-08-24T09:56:13.610Z,2.87
2022-08-24T09:57:21.090Z,2.83
2022-08-24T09:58:28.621Z,2.56
2022-08-24T09:59:51.471Z,2.89
2022-08-24T10:00:56.851Z,2.91
2022-08-24T10:02:01.882Z,3.07
2022-08-24T10:03:21.832Z,2.95
2022-08-24T10:05:43.577Z,3.39
2022-08-24T10:07:00.766Z,2.97
2022-08-24T10:08:14.365Z,3.22
2022-08-24T10:09:37.340Z,2.63
2022-08-24T10:12:14.325Z,3.26
2022-08-24T10:13:21.462Z,3.11
2022-08-24T10:14:41.327Z,2.62
2022-08-24T10:15:48.526Z,2.99
2022-08-24T10:16:56.035Z,2.47
2022-08-24T10:18:17.436Z,2.39
2022-08-24T10:19:38.728Z,2.80
2022-08-24T10:21:00.274Z,2.64
2022-08-24T10:23:38.052Z,3.05
2022-08-24T10:24:48.579Z,3.07
2022-08-24T10:25:52.658Z,2.56
2022-08-24T10:27:03.666Z,3.04
2022-08-24T10:28:13.857Z,2.76
2022-08-24T10:29:18.350Z,3.04
2022-08-24T10:30:28.107Z,2.70
2022-08-24T10:32:45.098Z,3.13
2022-08-24T10:34:01.425Z,2.69
2022-08-24T10:35:08.037Z,3.03
2022-08-24T10:36:14.954Z,2.86
2022-08-24T10:38:34.066Z,3.02
2022-08-24T10:40:01.428Z,2.55
2022-08-24T10:41:18.069Z,2.98
2022-08-24T10:42:31.952Z,3.38
2022-08-24T10:43:36.541Z,3.08
2022-08-24T10:44:49.093Z,3.11
2022-08-24T10:46:02.682Z,3.12
2022-08-24T10:47:07.106Z,3.08
2022-08-24T10:49:37.078Z,2.76
2022-08-24T10:50:47.737Z,3.01
2022-08-24T10:52:01.445Z,3.00
2022-08-24T10:54:25.740Z,2.50
2022-08-24T10:55:29.462Z,2.90
2022-08-24T10:56:42.586Z,2.48
2022-08-24T10:59:08.477Z,3.65
2022-08-24T11:00:12.731Z,2.88
2022-08-24T11:01:19.280Z,3.12
2022-08-24T11:02:29.297Z,3.41
2022-08-24T11:03:32.558Z,3.71
2022-08-24T11:04:35.223Z,3.26
2022-08-24T11:05:39.533Z,2.63
2022-08-24T11:06:43.222Z,2.93
2022-08-24T11:07:58.458Z,2.95
2022-08-24T11:09:02.887Z,2.96
2022-08-24T11:10:07.046Z,2.45
2022-08-24T11:11:10.736Z,2.65
2022-08-24T11:12:24.012Z,2.58
2022-08-24T11:13:26.591Z,2.79
2022-08-24T11:14:29.040Z,3.19
2022-08-24T11:15:31.645Z,2.50
2022-08-24T11:18:00.828Z,2.41
2022-08-24T11:19:05.332Z,3.28
2022-08-24T11:21:35.869Z,2.92
2022-08-24T11:22:43.254Z,2.54
2022-08-24T11:23:45.837Z,2.87
2022-08-24T11:24:48.445Z,2.73
2022-08-24T11:25:52.804Z,2.77
2022-08-24T11:27:00.547Z,2.34
2022-08-24T11:28:13.735Z,2.52
2022-08-24T11:29:16.327Z,2.82
2022-08-24T11:30:22.596Z,2.36
2022-08-24T11:31:35.549Z,2.54
2022-08-24T11:32:38.002Z,3.06
2022-08-24T11:33:45.150Z,2.62
2022-08-24T11:34:49.546Z,2.47
2022-08-24T11:35:52.167Z,2.61
2022-08-24T11:36:54.953Z,2.53
2022-08-24T11:37:59.258Z,2.61
2022-08-24T11:39:18.868Z,2.47
2022-08-24T11:40:24.971Z,2.43
2022-08-24T11:41:32.389Z,3.07
2022-08-24T11:42:43.074Z,2.87
2022-08-24T11:43:47.771Z,2.65
2022-08-24T11:46:16.793Z,2.81
2022-08-24T11:47:27.176Z,3.16
2022-08-24T11:48:38.662Z,3.15
2022-08-24T11:49:49.875Z,2.96
2022-08-24T11:51:06.775Z,2.82
2022-08-24T11:52:11.175Z,3.17
2022-08-24T11:53:16.153Z,2.82
2022-08-24T11:54:24.516Z,2.74
2022-08-24T11:55:32.412Z,2.46
2022-08-24T11:56:42.290Z,2.43
2022-08-24T11:58:04.016Z,2.55
2022-08-24T11:59:22.375Z,2.61
2022-08-24T12:00:27.152Z,2.53
2022-08-24T12:01:49.563Z,2.74
2022-08-24T12:02:54.282Z,2.89
2022-08-24T12:04:08.095Z,2.59
2022-08-24T12:05:18.609Z,2.81
2022-08-24T12:06:37.116Z,3.09
2022-08-24T12:07:41.514Z,2.52
2022-08-24T12:08:46.921Z,2.81
2022-08-24T12:09:51.269Z,3.07
2022-08-24T12:11:12.715Z,2.76
2022-08-24T12:15:15.985Z,2.66
2022-08-24T12:16:23.599Z,2.51
2022-08-24T12:17:34.156Z,3.19
2022-08-24T12:18:47.712Z,3.22
2022-08-24T12:19:58.357Z,2.90
2022-08-24T12:21:01.490Z,2.47
2022-08-24T12:22:04.688Z,2.51
2022-08-24T12:23:16.285Z,2.66
2022-08-24T12:25:31.199Z,2.90
2022-08-24T12:26:47.174Z,2.51
2022-08-24T12:27:49.687Z,2.61
2022-08-24T12:28:56.159Z,2.91
2022-08-24T12:30:05.580Z,2.79
2022-08-24T12:31:12.755Z,3.12
2022-08-24T12:32:18.867Z,2.06
2022-08-24T12:33:23.256Z,2.63
2022-08-24T12:34:30.441Z,2.71
2022-08-24T12:35:37.641Z,2.73
2022-08-24T12:36:58.572Z,2.35
2022-08-24T12:39:14.984Z,2.19
2022-08-24T12:40:22.538Z,2.31
2022-08-24T12:41:33.163Z,2.07
2022-08-24T12:42:38.991Z,2.11
2022-08-24T12:43:42.289Z,1.92
2022-08-24T12:48:40.605Z,2.35
2022-08-24T12:49:44.996Z,2.48
2022-08-24T12:50:49.716Z,2.42
2022-08-24T12:52:10.973Z,2.15
2022-08-24T12:53:31.964Z,2.13
2022-08-24T12:54:53.491Z,1.91
2022-08-24T12:56:14.749Z,2.08
2022-08-24T12:57:25.275Z,2.10
2022-08-24T12:58:34.953Z,1.94
2022-08-24T12:59:34.944Z,2.14
2022-08-24T13:00:39.783Z,2.07
2022-08-24T13:01:44.319Z,2.11
2022-08-24T13:02:48.881Z,2.22
2022-08-24T13:04:08.739Z,2.45
2022-08-24T13:05:15.298Z,2.27
2022-08-24T13:06:20.051Z,2.03
2022-08-24T13:08:41.967Z,2.26
2022-08-24T13:09:46.537Z,2.42
2022-08-24T13:10:52.949Z,2.09
2022-08-24T13:11:57.328Z,2.11
2022-08-24T13:13:08.752Z,2.29
2022-08-24T13:14:13.116Z,1.92
2022-08-24T13:15:26.695Z,2.05
2022-08-24T13:16:47.385Z,2.07
2022-08-24T13:17:51.814Z,1.92
2022-08-24T13:18:56.188Z,1.90
2022-08-24T13:20:16.001Z,2.43
2022-08-24T13:21:20.589Z,1.95
2022-08-24T13:22:34.599Z,2.28
2022-08-24T13:23:37.049Z,1.91
2022-08-24T13:24:41.423Z,2.58
2022-08-24T13:25:48.845Z,2.33
2022-08-24T13:26:51.639Z,2.13
2022-08-24T13:28:01.430Z,2.15
2022-08-24T13:29:04.055Z,2.07
2022-08-24T13:30:08.963Z,2.09
2022-08-24T13:31:28.558Z,2.51
2022-08-24T13:32:42.264Z,2.54
2022-08-24T13:34:02.244Z,2.41
2022-08-24T13:35:23.633Z,2.38
2022-08-24T13:36:45.136Z,2.03
2022-08-24T13:37:49.634Z,2.27
2022-08-24T13:40:15.258Z,2.01
2022-08-24T13:41:36.816Z,2.40
2022-08-24T13:42:48.069Z,2.35
2022-08-24T13:44:09.233Z,2.35
2022-08-24T13:45:25.676Z,2.16
2022-08-24T13:46:30.802Z,2.29
2022-08-24T13:47:53.740Z,2.50
2022-08-24T13:49:14.609Z,2.64
2022-08-24T13:50:36.207Z,1.88
2022-08-24T13:51:42.396Z,2.57
2022-08-24T13:56:59.677Z,2.69
2022-08-24T13:58:04.281Z,5.68
2022-08-24T14:00:35.451Z,2.64
2022-08-24T14:01:45.446Z,2.33
2022-08-24T14:02:49.923Z,2.34
2022-08-24T14:03:57.228Z,2.37
2022-08-24T14:05:10.862Z,1.78
2022-08-24T14:06:15.824Z,2.27
2022-08-24T14:07:21.107Z,2.10
2022-08-24T14:08:42.399Z,2.21
2022-08-24T14:09:49.667Z,1.87
2022-08-24T14:10:57.283Z,2.14
2022-08-24T14:12:01.707Z,1.96
2022-08-24T14:13:26.446Z,2.16
2022-08-24T14:14:29.363Z,1.97
2022-08-24T14:16:46.429Z,2.16
2022-08-24T14:19:14.999Z,2.01
2022-08-24T14:20:22.368Z,2.19
2022-08-24T14:21:24.931Z,2.52
2022-08-24T14:22:46.328Z,1.93
2022-08-24T14:23:50.717Z,2.10
2022-08-24T14:24:58.154Z,2.04
2022-08-24T14:26:19.308Z,2.22
2022-08-24T14:27:35.944Z,2.38
2022-08-24T14:28:43.746Z,2.47
2022-08-24T14:29:46.292Z,2.75
2022-08-24T14:30:54.360Z,2.87
2022-08-24T14:32:08.540Z,3.46
2022-08-24T14:33:20.690Z,5.17
2022-08-24T14:35:42.750Z,1.97
2022-08-24T14:38:17.392Z,2.79
2022-08-24T14:40:47.584Z,6.68
2022-08-24T14:41:52.000Z,5.43
2022-08-24T14:42:55.712Z,3.22
2022-08-24T14:44:09.132Z,1.96
2022-08-24T14:45:16.306Z,2.30
2022-08-24T14:47:35.489Z,2.36
2022-08-24T14:50:12.645Z,2.22
2022-08-24T14:51:17.732Z,2.95
2022-08-24T14:52:31.500Z,4.00
2022-08-24T14:53:48.028Z,2.51
2022-08-24T14:54:52.462Z,2.61
2022-08-24T14:56:01.010Z,2.51
2022-08-24T14:58:32.376Z,2.51
2022-08-24T14:59:42.681Z,2.34
2022-08-24T15:00:53.019Z,2.34
2022-08-24T15:02:00.366Z,2.66
2022-08-24T15:04:40.082Z,3.21
2022-08-24T15:05:44.567Z,2.48
2022-08-24T15:06:48.968Z,2.96
2022-08-24T15:07:52.856Z,2.23
2022-08-24T15:10:20.020Z,2.37
2022-08-24T15:11:23.871Z,2.28
2022-08-24T15:12:37.378Z,2.11
2022-08-24T15:13:54.109Z,2.55
2022-08-24T15:15:07.415Z,2.38
2022-08-24T15:16:15.666Z,2.19
2022-08-24T15:17:23.014Z,2.36
2022-08-24T15:18:34.849Z,2.30
2022-08-24T15:19:42.506Z,1.97
2022-08-24T15:20:59.766Z,2.25
2022-08-24T15:22:08.928Z,2.54
2022-08-24T15:24:41.439Z,2.12
2022-08-24T15:25:55.236Z,2.14
2022-08-24T15:28:28.028Z,2.09
2022-08-24T15:29:32.020Z,2.11
2022-08-24T15:30:35.427Z,2.18
2022-08-24T15:31:38.132Z,2.02
2022-08-24T15:32:48.032Z,2.51
2022-08-24T15:33:51.712Z,2.17
2022-08-24T15:34:54.986Z,2.11
2022-08-24T15:36:10.844Z,2.12
2022-08-24T15:37:18.107Z,2.42
2022-08-24T15:38:31.791Z,2.09
2022-08-24T15:39:34.257Z,2.16
2022-08-24T15:40:37.633Z,2.26
2022-08-24T15:41:41.998Z,2.71
2022-08-24T15:42:44.605Z,2.27
2022-08-24T15:43:58.100Z,2.11
2022-08-24T15:45:01.402Z,2.52
2022-08-24T15:46:04.647Z,2.63
2022-08-24T15:48:23.307Z,3.08
2022-08-24T15:49:30.712Z,2.11
2022-08-24T15:50:44.297Z,2.07
2022-08-24T15:51:48.708Z,2.41
2022-08-24T15:53:01.136Z,1.98
2022-08-24T15:54:14.069Z,2.56
2022-08-24T15:55:27.207Z,2.42
2022-08-24T15:56:32.012Z,2.13
2022-08-24T15:57:38.998Z,2.02
2022-08-24T15:58:41.629Z,2.58
2022-08-24T15:59:45.947Z,2.37
2022-08-24T16:00:48.754Z,2.56
2022-08-24T16:01:58.478Z,2.73